sensor_id;sensor_type;location;lat;lon;timestamp;pressure;altitude;pressure_sealevel;temperature;humidity
70434;BME280;57876;47.792;12.960;2024-01-15T00:00:31;95441.25;;;18.81;39.87
70434;BME280;57876;47.792;12.960;2024-01-15T00:02:56;95430.31;;;18.81;39.56
70434;BME280;57876;47.792;12.960;2024-01-15T00:05:21;95435.00;;;18.80;39.57
70434;BME280;57876;47.792;12.960;2024-01-15T00:07:46;95425.97;;;18.80;39.74
70434;BME280;57876;47.792;12.960;2024-01-15T00:10:10;95434.19;;;18.80;39.69
70434;BME280;57876;47.792;12.960;2024-01-15T00:12:34;95433.41;;;18.79;39.64
70434;BME280;57876;47.792;12.960;2024-01-15T00:14:59;95432.63;;;18.79;39.61
70434;BME280;57876;47.792;12.960;2024-01-15T00:17:24;95423.22;;;18.80;39.47
70434;BME280;57876;47.792;12.960;2024-01-15T00:19:49;95409.53;;;18.80;39.62
70434;BME280;57876;47.792;12.960;2024-01-15T00:22:13;95402.13;;;18.80;39.86
70434;BME280;57876;47.792;12.960;2024-01-15T00:24:38;95416.97;;;18.79;39.53
70434;BME280;57876;47.792;12.960;2024-01-15T00:27:02;95406.00;;;18.79;39.73
70434;BME280;57876;47.792;12.960;2024-01-15T00:29:27;95406.78;;;18.80;39.38
70434;BME280;57876;47.792;12.960;2024-01-15T00:31:51;95422.09;;;18.81;39.53
70434;BME280;57876;47.792;12.960;2024-01-15T00:34:15;95413.88;;;18.81;39.50
70434;BME280;57876;47.792;12.960;2024-01-15T00:36:40;95420.13;;;18.81;39.87
70434;BME280;57876;47.792;12.960;2024-01-15T00:39:04;95427.56;;;18.81;39.78
70434;BME280;57876;47.792;12.960;2024-01-15T00:41:29;95424.81;;;18.81;39.74
70434;BME280;57876;47.792;12.960;2024-01-15T00:43:53;95410.34;;;18.80;39.63
70434;BME280;57876;47.792;12.960;2024-01-15T00:46:17;95419.72;;;18.79;39.62
70434;BME280;57876;47.792;12.960;2024-01-15T00:48:42;95411.47;;;18.76;39.63
70434;BME280;57876;47.792;12.960;2024-01-15T00:51:07;95414.63;;;18.78;39.58
70434;BME280;57876;47.792;12.960;2024-01-15T00:53:31;95419.22;;;18.74;39.61
70434;BME280;57876;47.792;12.960;2024-01-15T00:55:56;95414.53;;;18.74;39.67
70434;BME280;57876;47.792;12.960;2024-01-15T00:58:20;95412.19;;;18.73;39.63
70434;BME280;57876;47.792;12.960;2024-01-15T01:00:44;95414.09;;;18.72;39.72
70434;BME280;57876;47.792;12.960;2024-01-15T01:03:09;95424.69;;;18.74;39.78
70434;BME280;57876;47.792;12.960;2024-01-15T01:05:34;95414.09;;;18.72;39.72
70434;BME280;57876;47.792;12.960;2024-01-15T01:07:58;95416.84;;;18.72;39.75
70434;BME280;57876;47.792;12.960;2024-01-15T01:10:23;95410.56;;;18.71;39.58
70434;BME280;57876;47.792;12.960;2024-01-15T01:12:47;95421.53;;;18.71;39.42
70434;BME280;57876;47.792;12.960;2024-01-15T01:15:11;95438.34;;;18.70;39.88
70434;BME280;57876;47.792;12.960;2024-01-15T01:17:38;95425.03;;;18.68;39.69
70434;BME280;57876;47.792;12.960;2024-01-15T01:20:03;95432.50;;;18.71;39.59
70434;BME280;57876;47.792;12.960;2024-01-15T01:22:30;95434.09;;;18.73;39.65
70434;BME280;57876;47.792;12.960;2024-01-15T01:24:54;95433.28;;;18.72;39.67
70434;BME280;57876;47.792;12.960;2024-01-15T01:27:19;95441.13;;;18.74;39.63
70434;BME280;57876;47.792;12.960;2024-01-15T01:29:43;95428.19;;;18.70;39.69
70434;BME280;57876;47.792;12.960;2024-01-15T01:32:07;95438.06;;;18.75;39.50
70434;BME280;57876;47.792;12.960;2024-01-15T01:34:32;95420.75;;;18.71;39.68
70434;BME280;57876;47.792;12.960;2024-01-15T01:36:57;95435.66;;;18.74;39.68
70434;BME280;57876;47.792;12.960;2024-01-15T01:39:21;95432.91;;;18.74;39.79
70434;BME280;57876;47.792;12.960;2024-01-15T01:41:46;95437.25;;;18.75;39.67
70434;BME280;57876;47.792;12.960;2024-01-15T01:44:10;95438.06;;;18.75;39.74
70434;BME280;57876;47.792;12.960;2024-01-15T01:46:36;95420.81;;;18.75;39.94
70434;BME280;57876;47.792;12.960;2024-01-15T01:49:04;95425.47;;;18.74;39.67
70434;BME280;57876;47.792;12.960;2024-01-15T01:51:30;95423.56;;;18.75;39.83
70434;BME280;57876;47.792;12.960;2024-01-15T01:53:55;95419.22;;;18.74;39.90
70434;BME280;57876;47.792;12.960;2024-01-15T01:56:20;95427.00;;;18.71;39.92
70434;BME280;57876;47.792;12.960;2024-01-15T01:58:44;95437.97;;;18.71;39.54
70434;BME280;57876;47.792;12.960;2024-01-15T02:01:10;95440.28;;;18.69;39.72
70434;BME280;57876;47.792;12.960;2024-01-15T02:03:37;95436.34;;;18.67;39.47
70434;BME280;57876;47.792;12.960;2024-01-15T02:06:01;95441.84;;;18.67;39.61
70434;BME280;57876;47.792;12.960;2024-01-15T02:08:26;95447.66;;;18.65;39.78
70434;BME280;57876;47.792;12.960;2024-01-15T02:10:50;95442.56;;;18.64;39.62
70434;BME280;57876;47.792;12.960;2024-01-15T02:13:15;95451.16;;;18.62;39.71
70434;BME280;57876;47.792;12.960;2024-01-15T02:15:39;95460.50;;;18.61;39.74
70434;BME280;57876;47.792;12.960;2024-01-15T02:18:05;95471.47;;;18.61;39.78
70434;BME280;57876;47.792;12.960;2024-01-15T02:20:32;95458.94;;;18.60;39.84
70434;BME280;57876;47.792;12.960;2024-01-15T02:23:13;95457.78;;;18.61;39.75
70434;BME280;57876;47.792;12.960;2024-01-15T02:25:39;95473.81;;;18.59;39.80
70434;BME280;57876;47.792;12.960;2024-01-15T02:28:05;95473.81;;;18.59;39.82
70434;BME280;57876;47.792;12.960;2024-01-15T02:30:31;95470.69;;;18.61;39.76
70434;BME280;57876;47.792;12.960;2024-01-15T02:32:55;95470.69;;;18.61;39.75
70434;BME280;57876;47.792;12.960;2024-01-15T02:35:20;95483.22;;;18.62;39.91
70434;BME280;57876;47.792;12.960;2024-01-15T02:37:44;95467.59;;;18.62;39.78
70434;BME280;57876;47.792;12.960;2024-01-15T02:40:09;95473.06;;;18.62;39.80
70434;BME280;57876;47.792;12.960;2024-01-15T02:42:33;95475.81;;;18.62;39.44
70434;BME280;57876;47.792;12.960;2024-01-15T02:44:58;95475.81;;;18.62;39.57
70434;BME280;57876;47.792;12.960;2024-01-15T02:47:22;95485.59;;;18.63;39.76
70434;BME280;57876;47.792;12.960;2024-01-15T02:49:46;95485.22;;;18.65;40.00
70434;BME280;57876;47.792;12.960;2024-01-15T02:52:11;95486.00;;;18.65;39.86
70434;BME280;57876;47.792;12.960;2024-01-15T02:54:35;95484.06;;;18.66;39.80
70434;BME280;57876;47.792;12.960;2024-01-15T02:56:59;95494.22;;;18.65;39.61
70434;BME280;57876;47.792;12.960;2024-01-15T02:59:24;95495.78;;;18.66;39.65
70434;BME280;57876;47.792;12.960;2024-01-15T03:01:48;95492.28;;;18.66;39.74
70434;BME280;57876;47.792;12.960;2024-01-15T03:04:13;95503.66;;;18.68;39.65
70434;BME280;57876;47.792;12.960;2024-01-15T03:06:37;95497.41;;;18.67;39.79
70434;BME280;57876;47.792;12.960;2024-01-15T03:09:01;95520.09;;;18.68;39.66
70434;BME280;57876;47.792;12.960;2024-01-15T03:11:27;95519.31;;;18.67;39.77
70434;BME280;57876;47.792;12.960;2024-01-15T03:13:52;95519.31;;;18.67;39.64
70434;BME280;57876;47.792;12.960;2024-01-15T03:16:16;95524.00;;;18.67;39.74
70434;BME280;57876;47.792;12.960;2024-01-15T03:18:40;95526.31;;;18.65;39.97
70434;BME280;57876;47.792;12.960;2024-01-15T03:21:05;95527.44;;;18.64;39.67
70434;BME280;57876;47.792;12.960;2024-01-15T03:23:30;95533.31;;;18.62;40.19
70434;BME280;57876;47.792;12.960;2024-01-15T03:25:54;95527.06;;;18.62;39.56
70434;BME280;57876;47.792;12.960;2024-01-15T03:28:19;95538.34;;;18.60;40.01
70434;BME280;57876;47.792;12.960;2024-01-15T03:30:43;95539.53;;;18.59;39.85
70434;BME280;57876;47.792;12.960;2024-01-15T03:33:08;95538.31;;;18.57;39.79
70434;BME280;57876;47.792;12.960;2024-01-15T03:35:32;95544.16;;;18.55;39.92
70434;BME280;57876;47.792;12.960;2024-01-15T03:37:56;95543.34;;;18.55;39.70
70434;BME280;57876;47.792;12.960;2024-01-15T03:40:21;95543.34;;;18.55;39.85
70434;BME280;57876;47.792;12.960;2024-01-15T03:42:45;95537.09;;;18.54;39.81
70434;BME280;57876;47.792;12.960;2024-01-15T03:45:09;95544.16;;;18.55;39.81
70434;BME280;57876;47.792;12.960;2024-01-15T03:47:34;95540.97;;;18.53;39.62
70434;BME280;57876;47.792;12.960;2024-01-15T03:49:58;95552.34;;;18.55;39.78
70434;BME280;57876;47.792;12.960;2024-01-15T03:52:23;95550.41;;;18.56;39.77
70434;BME280;57876;47.792;12.960;2024-01-15T03:54:47;95549.25;;;18.57;39.95
70434;BME280;57876;47.792;12.960;2024-01-15T03:57:11;95558.25;;;18.57;39.50
70434;BME280;57876;47.792;12.960;2024-01-15T03:59:36;95560.63;;;18.59;39.91
70434;BME280;57876;47.792;12.960;2024-01-15T04:02:00;95563.34;;;18.59;39.90
70434;BME280;57876;47.792;12.960;2024-01-15T04:04:25;95565.75;;;18.60;39.90
70434;BME280;57876;47.792;12.960;2024-01-15T04:06:49;95556.75;;;18.60;39.83
70434;BME280;57876;47.792;12.960;2024-01-15T04:09:14;95556.75;;;18.60;39.76
70434;BME280;57876;47.792;12.960;2024-01-15T04:11:38;95565.38;;;18.62;39.81
70434;BME280;57876;47.792;12.960;2024-01-15T04:14:03;95573.97;;;18.60;39.93
70434;BME280;57876;47.792;12.960;2024-01-15T04:16:27;95575.13;;;18.59;39.80
70434;BME280;57876;47.792;12.960;2024-01-15T04:18:52;95582.97;;;18.61;39.96
70434;BME280;57876;47.792;12.960;2024-01-15T04:21:17;95566.53;;;18.61;40.01
70434;BME280;57876;47.792;12.960;2024-01-15T04:23:42;95578.66;;;18.60;39.79
70434;BME280;57876;47.792;12.960;2024-01-15T04:26:06;95574.75;;;18.61;39.79
70434;BME280;57876;47.792;12.960;2024-01-15T04:28:31;95562.66;;;18.62;40.01
70434;BME280;57876;47.792;12.960;2024-01-15T04:30:55;95562.66;;;18.62;39.69
70434;BME280;57876;47.792;12.960;2024-01-15T04:33:19;95563.88;;;18.64;39.90
70434;BME280;57876;47.792;12.960;2024-01-15T04:35:44;95558.38;;;18.64;39.74
70434;BME280;57876;47.792;12.960;2024-01-15T04:38:08;95559.97;;;18.65;39.76
70434;BME280;57876;47.792;12.960;2024-01-15T04:40:33;95563.13;;;18.67;40.03
70434;BME280;57876;47.792;12.960;2024-01-15T04:42:57;95557.66;;;18.67;40.02
70434;BME280;57876;47.792;12.960;2024-01-15T04:45:21;95564.38;;;18.74;39.86
70434;BME280;57876;47.792;12.960;2024-01-15T04:47:52;95553.09;;;18.75;39.80
70434;BME280;57876;47.792;12.960;2024-01-15T04:50:16;95557.84;;;18.78;39.78
70434;BME280;57876;47.792;12.960;2024-01-15T04:52:44;95552.38;;;18.78;39.78
70434;BME280;57876;47.792;12.960;2024-01-15T04:55:08;95551.97;;;18.80;39.74
70434;BME280;57876;47.792;12.960;2024-01-15T04:57:35;95546.94;;;18.82;39.85
70434;BME280;57876;47.792;12.960;2024-01-15T05:00:00;95546.19;;;18.85;39.53
70434;BME280;57876;47.792;12.960;2024-01-15T05:02:24;95546.97;;;18.85;39.53
70434;BME280;57876;47.792;12.960;2024-01-15T05:04:49;95547.78;;;18.86;39.66
70434;BME280;57876;47.792;12.960;2024-01-15T05:07:13;95529.38;;;18.86;39.76
70434;BME280;57876;47.792;12.960;2024-01-15T05:09:37;95527.44;;;18.87;39.69
70434;BME280;57876;47.792;12.960;2024-01-15T05:12:02;95530.59;;;18.89;39.81
70434;BME280;57876;47.792;12.960;2024-01-15T05:14:27;95532.91;;;18.87;39.85
70434;BME280;57876;47.792;12.960;2024-01-15T05:16:51;95527.44;;;18.87;39.46
70434;BME280;57876;47.792;12.960;2024-01-15T05:19:16;95531.34;;;18.86;39.69
70434;BME280;57876;47.792;12.960;2024-01-15T05:21:40;95531.34;;;18.86;39.85
70434;BME280;57876;47.792;12.960;2024-01-15T05:24:05;95536.00;;;18.85;39.71
70434;BME280;57876;47.792;12.960;2024-01-15T05:26:29;95532.06;;;18.83;39.86
70434;BME280;57876;47.792;12.960;2024-01-15T05:28:54;95541.84;;;18.80;39.79
70434;BME280;57876;47.792;12.960;2024-01-15T05:31:18;95537.13;;;18.81;39.76
70434;BME280;57876;47.792;12.960;2024-01-15T05:33:42;95540.25;;;18.79;39.72
70434;BME280;57876;47.792;12.960;2024-01-15T05:36:07;95533.97;;;18.79;39.87
70434;BME280;57876;47.792;12.960;2024-01-15T05:38:31;95539.81;;;18.77;39.89
70434;BME280;57876;47.792;12.960;2024-01-15T05:40:56;95531.97;;;18.76;39.83
70434;BME280;57876;47.792;12.960;2024-01-15T05:43:20;95532.75;;;18.76;39.91
70434;BME280;57876;47.792;12.960;2024-01-15T05:45:44;95523.38;;;18.77;39.74
70434;BME280;57876;47.792;12.960;2024-01-15T05:48:09;95525.75;;;18.79;39.99
70434;BME280;57876;47.792;12.960;2024-01-15T05:50:33;95521.06;;;18.79;39.92
70434;BME280;57876;47.792;12.960;2024-01-15T05:52:58;95517.53;;;18.79;39.87
70434;BME280;57876;47.792;12.960;2024-01-15T05:55:22;95510.09;;;18.79;39.77
70434;BME280;57876;47.792;12.960;2024-01-15T05:57:47;95507.78;;;18.81;39.99
70434;BME280;57876;47.792;12.960;2024-01-15T06:00:11;95510.97;;;18.83;39.77
70434;BME280;57876;47.792;12.960;2024-01-15T06:02:39;95519.56;;;18.85;39.92
70434;BME280;57876;47.792;12.960;2024-01-15T06:05:04;95516.47;;;18.87;39.64
70434;BME280;57876;47.792;12.960;2024-01-15T06:07:28;95514.94;;;18.89;39.65
70434;BME280;57876;47.792;12.960;2024-01-15T06:09:53;95503.63;;;18.91;39.84
70434;BME280;57876;47.792;12.960;2024-01-15T06:12:17;95513.41;;;18.92;39.64
70434;BME280;57876;47.792;12.960;2024-01-15T06:14:41;95515.00;;;18.93;39.79
70434;BME280;57876;47.792;12.960;2024-01-15T06:17:06;95505.63;;;18.94;39.97
70434;BME280;57876;47.792;12.960;2024-01-15T06:19:31;95515.41;;;18.95;40.05
70434;BME280;57876;47.792;12.960;2024-01-15T06:21:55;95515.06;;;18.97;39.94
70434;BME280;57876;47.792;12.960;2024-01-15T06:24:20;95507.63;;;18.97;39.83
70434;BME280;57876;47.792;12.960;2024-01-15T06:26:46;95524.06;;;18.97;39.85
70434;BME280;57876;47.792;12.960;2024-01-15T06:29:10;95521.31;;;18.97;39.87
70434;BME280;57876;47.792;12.960;2024-01-15T06:31:35;95518.94;;;18.96;39.68
70434;BME280;57876;47.792;12.960;2024-01-15T06:33:59;95522.06;;;18.94;39.81
70434;BME280;57876;47.792;12.960;2024-01-15T06:36:23;95528.28;;;18.91;39.81
70434;BME280;57876;47.792;12.960;2024-01-15T06:38:48;95523.94;;;18.90;39.74
70434;BME280;57876;47.792;12.960;2024-01-15T06:41:12;95521.19;;;18.86;39.76
70434;BME280;57876;47.792;12.960;2024-01-15T06:43:37;95533.34;;;18.89;39.58
70434;BME280;57876;47.792;12.960;2024-01-15T06:46:01;95522.75;;;18.87;39.84
70434;BME280;57876;47.792;12.960;2024-01-15T06:48:26;95521.19;;;18.86;39.87
70434;BME280;57876;47.792;12.960;2024-01-15T06:50:50;95528.59;;;18.86;40.01
70434;BME280;57876;47.792;12.960;2024-01-15T06:53:14;95522.69;;;18.84;40.01
70434;BME280;57876;47.792;12.960;2024-01-15T06:55:39;95513.31;;;18.85;39.84
70434;BME280;57876;47.792;12.960;2024-01-15T06:58:05;95504.66;;;18.83;39.88
70434;BME280;57876;47.792;12.960;2024-01-15T07:00:30;95516.44;;;18.83;39.86
70434;BME280;57876;47.792;12.960;2024-01-15T07:02:54;95510.97;;;18.83;39.81
70434;BME280;57876;47.792;12.960;2024-01-15T07:05:20;95518.38;;;18.83;39.68
70434;BME280;57876;47.792;12.960;2024-01-15T07:07:45;95525.44;;;18.84;39.75
70434;BME280;57876;47.792;12.960;2024-01-15T07:10:09;95522.31;;;18.85;39.60
70434;BME280;57876;47.792;12.960;2024-01-15T07:12:37;95523.53;;;18.88;39.75
70434;BME280;57876;47.792;12.960;2024-01-15T07:15:05;95519.22;;;18.87;39.78
70434;BME280;57876;47.792;12.960;2024-01-15T07:17:32;95519.22;;;18.87;39.90
70434;BME280;57876;47.792;12.960;2024-01-15T07:19:56;95525.06;;;18.85;39.90
70434;BME280;57876;47.792;12.960;2024-01-15T07:22:21;95524.28;;;18.85;39.78
70434;BME280;57876;47.792;12.960;2024-01-15T07:24:45;95519.97;;;18.84;39.75
70434;BME280;57876;47.792;12.960;2024-01-15T07:27:10;95524.28;;;18.85;39.75
70434;BME280;57876;47.792;12.960;2024-01-15T07:29:34;95521.91;;;18.83;39.78
70434;BME280;57876;47.792;12.960;2024-01-15T07:32:01;95508.53;;;18.78;39.81
70434;BME280;57876;47.792;12.960;2024-01-15T07:34:26;95520.31;;;18.82;39.85
70434;BME280;57876;47.792;12.960;2024-01-15T07:36:50;95522.69;;;18.84;40.05
70434;BME280;57876;47.792;12.960;2024-01-15T07:39:16;95536.81;;;18.86;39.88
70434;BME280;57876;47.792;12.960;2024-01-15T07:41:41;95524.69;;;18.87;39.75
70434;BME280;57876;47.792;12.960;2024-01-15T07:44:05;95530.59;;;18.89;39.69
70434;BME280;57876;47.792;12.960;2024-01-15T07:46:29;95527.47;;;18.90;39.67
70434;BME280;57876;47.792;12.960;2024-01-15T07:48:54;95538.50;;;18.94;39.69
70434;BME280;57876;47.792;12.960;2024-01-15T07:51:22;95533.81;;;18.95;39.72
70434;BME280;57876;47.792;12.960;2024-01-15T07:53:46;95523.28;;;18.97;39.76
70434;BME280;57876;47.792;12.960;2024-01-15T07:56:11;95532.28;;;18.97;39.61
70434;BME280;57876;47.792;12.960;2024-01-15T07:58:36;95524.50;;;18.99;39.78
70434;BME280;57876;47.792;12.960;2024-01-15T08:01:00;95520.56;;;19.00;39.58
70434;BME280;57876;47.792;12.960;2024-01-15T08:03:24;95524.88;;;19.01;39.27
70434;BME280;57876;47.792;12.960;2024-01-15T08:05:49;95528.06;;;19.03;39.79
70434;BME280;57876;47.792;12.960;2024-01-15T08:08:16;95530.78;;;19.03;39.84
70434;BME280;57876;47.792;12.960;2024-01-15T08:10:40;95528.44;;;19.02;39.85
70434;BME280;57876;47.792;12.960;2024-01-15T08:13:05;95529.22;;;19.02;39.71
70434;BME280;57876;47.792;12.960;2024-01-15T08:15:32;95524.88;;;19.01;39.68
70434;BME280;57876;47.792;12.960;2024-01-15T08:17:56;95527.63;;;19.01;39.66
70434;BME280;57876;47.792;12.960;2024-01-15T08:20:20;95527.59;;;18.98;39.59
70434;BME280;57876;47.792;12.960;2024-01-15T08:22:45;95534.25;;;18.97;39.86
70434;BME280;57876;47.792;12.960;2024-01-15T08:25:10;95528.34;;;18.95;39.73
70434;BME280;57876;47.792;12.960;2024-01-15T08:27:35;95536.91;;;18.93;40.00
70434;BME280;57876;47.792;12.960;2024-01-15T08:29:59;95537.28;;;18.91;39.96
70434;BME280;57876;47.792;12.960;2024-01-15T08:32:24;95539.25;;;18.91;39.74
70434;BME280;57876;47.792;12.960;2024-01-15T08:34:48;95539.25;;;18.91;39.94
70434;BME280;57876;47.792;12.960;2024-01-15T08:37:16;95535.69;;;18.90;39.76
70434;BME280;57876;47.792;12.960;2024-01-15T08:39:40;95542.34;;;18.89;39.70
70434;BME280;57876;47.792;12.960;2024-01-15T08:42:05;95552.88;;;18.87;39.77
70434;BME280;57876;47.792;12.960;2024-01-15T08:44:30;95559.13;;;18.88;39.76
70434;BME280;57876;47.792;12.960;2024-01-15T08:46:54;95549.00;;;18.88;39.76
70434;BME280;57876;47.792;12.960;2024-01-15T08:49:18;95552.53;;;18.89;39.87
70434;BME280;57876;47.792;12.960;2024-01-15T08:51:43;95534.91;;;18.90;39.55
70434;BME280;57876;47.792;12.960;2024-01-15T08:54:07;95541.19;;;18.90;39.85
70434;BME280;57876;47.792;12.960;2024-01-15T08:56:32;95530.66;;;18.92;39.79
70434;BME280;57876;47.792;12.960;2024-01-15T08:58:56;95544.00;;;18.94;39.85
70434;BME280;57876;47.792;12.960;2024-01-15T09:01:21;95536.16;;;18.96;39.84
70434;BME280;57876;47.792;12.960;2024-01-15T09:03:47;95544.81;;;18.98;39.71
70434;BME280;57876;47.792;12.960;2024-01-15T09:06:12;95544.88;;;19.02;39.52
70434;BME280;57876;47.792;12.960;2024-01-15T09:08:37;95544.06;;;19.01;39.38
70434;BME280;57876;47.792;12.960;2024-01-15T09:11:01;95548.84;;;19.04;39.96
70434;BME280;57876;47.792;12.960;2024-01-15T09:13:27;95543.34;;;19.04;39.67
70434;BME280;57876;47.792;12.960;2024-01-15T09:15:51;95544.91;;;19.05;39.70
70434;BME280;57876;47.792;12.960;2024-01-15T09:18:15;95541.00;;;19.06;39.66
70434;BME280;57876;47.792;12.960;2024-01-15T09:20:40;95546.50;;;19.06;39.62
70434;BME280;57876;47.792;12.960;2024-01-15T09:23:04;95544.56;;;19.07;39.64
70434;BME280;57876;47.792;12.960;2024-01-15T09:25:28;95551.97;;;19.06;39.76
70434;BME280;57876;47.792;12.960;2024-01-15T09:27:53;95559.06;;;19.07;39.71
70434;BME280;57876;47.792;12.960;2024-01-15T09:30:17;95558.63;;;19.05;39.58
70434;BME280;57876;47.792;12.960;2024-01-15T09:32:42;95554.31;;;19.04;39.95
70434;BME280;57876;47.792;12.960;2024-01-15T09:35:06;95554.31;;;19.04;39.69
70434;BME280;57876;47.792;12.960;2024-01-15T09:37:31;95546.81;;;19.01;39.60
70434;BME280;57876;47.792;12.960;2024-01-15T09:39:55;95547.97;;;19.00;39.45
70434;BME280;57876;47.792;12.960;2024-01-15T09:42:20;95538.53;;;18.98;39.78
70434;BME280;57876;47.792;12.960;2024-01-15T09:44:44;95543.25;;;18.97;39.85
70434;BME280;57876;47.792;12.960;2024-01-15T09:47:09;95558.09;;;18.96;39.79
70434;BME280;57876;47.792;12.960;2024-01-15T09:49:34;95547.50;;;18.95;39.76
70434;BME280;57876;47.792;12.960;2024-01-15T09:51:59;95541.25;;;18.94;39.65
70434;BME280;57876;47.792;12.960;2024-01-15T09:54:25;95551.78;;;18.92;39.77
70434;BME280;57876;47.792;12.960;2024-01-15T09:56:50;95545.94;;;18.94;39.74
70434;BME280;57876;47.792;12.960;2024-01-15T09:59:16;95547.88;;;18.93;39.72
70434;BME280;57876;47.792;12.960;2024-01-15T10:01:40;95551.78;;;18.92;39.71
70434;BME280;57876;47.792;12.960;2024-01-15T10:04:05;95551.78;;;18.92;39.59
70434;BME280;57876;47.792;12.960;2024-01-15T10:06:30;95548.69;;;18.94;39.64
70434;BME280;57876;47.792;12.960;2024-01-15T10:08:56;95535.34;;;18.92;39.67
70434;BME280;57876;47.792;12.960;2024-01-15T10:11:22;95538.88;;;18.92;39.54
70434;BME280;57876;47.792;12.960;2024-01-15T10:13:46;95540.88;;;18.96;39.86
70434;BME280;57876;47.792;12.960;2024-01-15T10:16:11;95539.28;;;18.95;39.70
70434;BME280;57876;47.792;12.960;2024-01-15T10:18:35;95528.69;;;18.93;39.75
70434;BME280;57876;47.792;12.960;2024-01-15T10:21:02;95526.75;;;18.94;39.80
70434;BME280;57876;47.792;12.960;2024-01-15T10:23:27;95522.44;;;18.92;39.83
70434;BME280;57876;47.792;12.960;2024-01-15T10:25:51;95516.59;;;18.94;39.57
70434;BME280;57876;47.792;12.960;2024-01-15T10:28:15;95513.84;;;18.94;39.37
70434;BME280;57876;47.792;12.960;2024-01-15T10:30:40;95506.84;;;18.97;39.63
70434;BME280;57876;47.792;12.960;2024-01-15T10:33:04;95500.53;;;18.96;39.69
70434;BME280;57876;47.792;12.960;2024-01-15T10:35:30;95497.81;;;18.96;39.77
70434;BME280;57876;47.792;12.960;2024-01-15T10:37:55;95496.66;;;18.97;39.71
70434;BME280;57876;47.792;12.960;2024-01-15T10:40:19;95491.19;;;18.97;39.78
70434;BME280;57876;47.792;12.960;2024-01-15T10:42:44;95487.28;;;18.98;39.52
70434;BME280;57876;47.792;12.960;2024-01-15T10:45:08;95485.31;;;18.99;39.73
70434;BME280;57876;47.792;12.960;2024-01-15T10:47:33;95486.13;;;18.99;39.61
70434;BME280;57876;47.792;12.960;2024-01-15T10:49:57;95488.88;;;18.99;39.65
70434;BME280;57876;47.792;12.960;2024-01-15T10:52:22;95486.13;;;18.99;39.63
70434;BME280;57876;47.792;12.960;2024-01-15T10:54:48;95486.53;;;19.01;39.60
70434;BME280;57876;47.792;12.960;2024-01-15T10:57:15;95502.59;;;19.03;39.79
70434;BME280;57876;47.792;12.960;2024-01-15T10:59:40;95498.69;;;19.04;39.75
70434;BME280;57876;47.792;12.960;2024-01-15T11:02:04;95503.38;;;19.03;39.72
70434;BME280;57876;47.792;12.960;2024-01-15T11:04:31;95503.81;;;19.05;39.77
70434;BME280;57876;47.792;12.960;2024-01-15T11:06:56;95503.03;;;19.05;39.59
70434;BME280;57876;47.792;12.960;2024-01-15T11:09:20;95502.63;;;19.06;39.65
70434;BME280;57876;47.792;12.960;2024-01-15T11:11:46;95508.13;;;19.06;39.76
70434;BME280;57876;47.792;12.960;2024-01-15T11:14:11;95500.72;;;19.07;39.72
70434;BME280;57876;47.792;12.960;2024-01-15T11:16:55;95503.06;;;19.08;39.70
70434;BME280;57876;47.792;12.960;2024-01-15T11:22:01;95502.63;;;19.06;39.66
70434;BME280;57876;47.792;12.960;2024-01-15T11:24:52;95505.03;;;19.08;39.31
70434;BME280;57876;47.792;12.960;2024-01-15T11:27:43;95498.38;;;19.09;39.61
70434;BME280;57876;47.792;12.960;2024-01-15T11:30:09;95489.38;;;19.08;39.52
70434;BME280;57876;47.792;12.960;2024-01-15T11:32:34;95494.84;;;19.08;39.67
70434;BME280;57876;47.792;12.960;2024-01-15T11:34:59;95491.69;;;19.06;39.80
70434;BME280;57876;47.792;12.960;2024-01-15T11:38:13;95488.53;;;19.04;39.55
70434;BME280;57876;47.792;12.960;2024-01-15T11:40:12;95486.94;;;19.03;39.62
70434;BME280;57876;47.792;12.960;2024-01-15T11:42:38;95479.91;;;19.02;39.71
70434;BME280;57876;47.792;12.960;2024-01-15T11:45:03;95475.94;;;19.00;39.58
70434;BME280;57876;47.792;12.960;2024-01-15T11:50:31;95462.59;;;18.98;39.76
70434;BME280;57876;47.792;12.960;2024-01-15T11:53:03;95457.53;;;18.97;39.75
70434;BME280;57876;47.792;12.960;2024-01-15T11:55:33;95454.78;;;18.97;39.66
70434;BME280;57876;47.792;12.960;2024-01-15T11:58:00;95462.19;;;18.96;39.68
70434;BME280;57876;47.792;12.960;2024-01-15T12:00:25;95460.25;;;18.97;39.79
70434;BME280;57876;47.792;12.960;2024-01-15T12:02:50;95448.91;;;18.98;39.59
70434;BME280;57876;47.792;12.960;2024-01-15T12:05:18;95448.13;;;18.98;39.60
70434;BME280;57876;47.792;12.960;2024-01-15T12:07:46;95451.66;;;18.98;39.78
70434;BME280;57876;47.792;12.960;2024-01-15T12:10:13;95443.44;;;18.98;39.78
70434;BME280;57876;47.792;12.960;2024-01-15T12:12:53;95443.44;;;18.98;39.60
70434;BME280;57876;47.792;12.960;2024-01-15T12:15:19;95428.94;;;18.98;39.62
70434;BME280;57876;47.792;12.960;2024-01-15T12:17:46;95428.94;;;18.98;39.99
70434;BME280;57876;47.792;12.960;2024-01-15T12:20:11;95417.97;;;18.98;39.69
70434;BME280;57876;47.792;12.960;2024-01-15T12:22:36;95422.28;;;18.99;39.83
70434;BME280;57876;47.792;12.960;2024-01-15T12:25:02;95418.78;;;18.98;39.75
70434;BME280;57876;47.792;12.960;2024-01-15T12:27:26;95421.16;;;19.00;39.74
70434;BME280;57876;47.792;12.960;2024-01-15T12:29:52;95416.88;;;19.02;39.77
70434;BME280;57876;47.792;12.960;2024-01-15T12:32:18;95410.97;;;19.00;39.72
70434;BME280;57876;47.792;12.960;2024-01-15T12:34:43;95419.63;;;19.02;39.73
70434;BME280;57876;47.792;12.960;2024-01-15T12:37:08;95418.84;;;19.02;39.69
70434;BME280;57876;47.792;12.960;2024-01-15T12:39:34;95410.22;;;19.03;39.83
70434;BME280;57876;47.792;12.960;2024-01-15T12:41:59;95416.47;;;19.04;39.83
70434;BME280;57876;47.792;12.960;2024-01-15T12:44:23;95413.38;;;19.05;39.63